sensor_id;sensor_type;location;lat;lon;timestamp;temperature;humidity
9939;DHT22;5008;50.656;7.188;2022-11-03T00:00:14;12.50;99.90
9939;DHT22;5008;50.656;7.188;2022-11-03T00:02:41;12.60;99.90
9939;DHT22;5008;50.656;7.188;2022-11-03T00:05:08;12.60;99.90
9939;DHT22;5008;50.656;7.188;2022-11-03T00:07:52;12.60;99.90
9939;DHT22;5008;50.656;7.188;2022-11-03T00:10:19;12.50;99.90
9939;DHT22;5008;50.656;7.188;2022-11-03T00:12:47;12.60;99.90
9939;DHT22;5008;50.656;7.188;2022-11-03T00:15:14;12.60;99.90
9939;DHT22;5008;50.656;7.188;2022-11-03T00:17:40;12.70;99.90
9939;DHT22;5008;50.656;7.188;2022-11-03T00:20:09;12.70;99.90
9939;DHT22;5008;50.656;7.188;2022-11-03T00:22:36;12.70;99.90
9939;DHT22;5008;50.656;7.188;2022-11-03T00:25:03;12.70;99.90
9939;DHT22;5008;50.656;7.188;2022-11-03T00:27:30;12.70;99.90
9939;DHT22;5008;50.656;7.188;2022-11-03T00:29:58;12.80;99.90
9939;DHT22;5008;50.656;7.188;2022-11-03T00:32:25;12.80;99.90
9939;DHT22;5008;50.656;7.188;2022-11-03T00:34:52;12.80;99.90
9939;DHT22;5008;50.656;7.188;2022-11-03T00:37:19;12.70;99.90
9939;DHT22;5008;50.656;7.188;2022-11-03T00:39:45;12.70;99.90
9939;DHT22;5008;50.656;7.188;2022-11-03T00:42:12;12.80;99.90
9939;DHT22;5008;50.656;7.188;2022-11-03T00:44:39;12.80;99.90
9939;DHT22;5008;50.656;7.188;2022-11-03T00:47:07;12.80;99.90
9939;DHT22;5008;50.656;7.188;2022-11-03T00:49:34;12.80;99.90
9939;DHT22;5008;50.656;7.188;2022-11-03T00:52:00;12.80;99.90
9939;DHT22;5008;50.656;7.188;2022-11-03T00:54:27;12.70;99.90
9939;DHT22;5008;50.656;7.188;2022-11-03T00:56:54;12.70;99.90
9939;DHT22;5008;50.656;7.188;2022-11-03T00:59:21;12.80;99.90
9939;DHT22;5008;50.656;7.188;2022-11-03T01:01:47;12.80;99.90
9939;DHT22;5008;50.656;7.188;2022-11-03T01:04:16;12.90;99.90
9939;DHT22;5008;50.656;7.188;2022-11-03T01:07:02;12.90;99.90
9939;DHT22;5008;50.656;7.188;2022-11-03T01:09:30;12.90;99.90
9939;DHT22;5008;50.656;7.188;2022-11-03T01:12:02;12.90;99.90
9939;DHT22;5008;50.656;7.188;2022-11-03T01:14:31;12.90;99.90
9939;DHT22;5008;50.656;7.188;2022-11-03T01:16:59;12.90;99.90
9939;DHT22;5008;50.656;7.188;2022-11-03T01:19:27;13.00;99.90
9939;DHT22;5008;50.656;7.188;2022-11-03T01:21:54;13.00;99.90
9939;DHT22;5008;50.656;7.188;2022-11-03T01:24:21;12.80;99.90
9939;DHT22;5008;50.656;7.188;2022-11-03T01:26:48;12.70;99.90
9939;DHT22;5008;50.656;7.188;2022-11-03T01:29:15;12.70;99.90
9939;DHT22;5008;50.656;7.188;2022-11-03T01:31:41;12.70;99.90
9939;DHT22;5008;50.656;7.188;2022-11-03T01:34:12;12.70;99.90
9939;DHT22;5008;50.656;7.188;2022-11-03T01:36:41;12.70;99.90
9939;DHT22;5008;50.656;7.188;2022-11-03T01:39:09;12.70;99.90
9939;DHT22;5008;50.656;7.188;2022-11-03T01:41:36;12.70;99.90
9939;DHT22;5008;50.656;7.188;2022-11-03T01:44:27;12.70;99.90
9939;DHT22;5008;50.656;7.188;2022-11-03T01:47:02;12.60;99.90
9939;DHT22;5008;50.656;7.188;2022-11-03T01:49:34;12.60;99.90
9939;DHT22;5008;50.656;7.188;2022-11-03T01:52:07;12.60;99.90
9939;DHT22;5008;50.656;7.188;2022-11-03T01:54:36;12.60;99.90
9939;DHT22;5008;50.656;7.188;2022-11-03T01:57:05;12.70;99.90
9939;DHT22;5008;50.656;7.188;2022-11-03T01:59:33;12.60;99.90
9939;DHT22;5008;50.656;7.188;2022-11-03T02:02:00;12.60;99.90
9939;DHT22;5008;50.656;7.188;2022-11-03T02:04:30;12.60;99.90
9939;DHT22;5008;50.656;7.188;2022-11-03T02:07:07;12.50;99.90
9939;DHT22;5008;50.656;7.188;2022-11-03T02:09:36;12.50;99.90
9939;DHT22;5008;50.656;7.188;2022-11-03T02:12:03;12.60;99.90
9939;DHT22;5008;50.656;7.188;2022-11-03T02:14:35;12.60;99.90
9939;DHT22;5008;50.656;7.188;2022-11-03T02:17:05;12.60;99.90
9939;DHT22;5008;50.656;7.188;2022-11-03T02:19:36;12.50;99.90
9939;DHT22;5008;50.656;7.188;2022-11-03T02:22:18;12.50;99.90
9939;DHT22;5008;50.656;7.188;2022-11-03T02:24:50;12.50;99.90
9939;DHT22;5008;50.656;7.188;2022-11-03T02:27:19;12.50;99.90
9939;DHT22;5008;50.656;7.188;2022-11-03T02:29:47;12.50;99.90
9939;DHT22;5008;50.656;7.188;2022-11-03T02:32:20;12.40;99.90
9939;DHT22;5008;50.656;7.188;2022-11-03T02:34:48;12.50;99.90
9939;DHT22;5008;50.656;7.188;2022-11-03T02:37:20;12.40;99.90
9939;DHT22;5008;50.656;7.188;2022-11-03T02:39:51;12.30;99.90
9939;DHT22;5008;50.656;7.188;2022-11-03T02:42:22;12.30;99.90
9939;DHT22;5008;50.656;7.188;2022-11-03T02:44:50;12.40;99.90
9939;DHT22;5008;50.656;7.188;2022-11-03T02:47:18;12.30;99.90
9939;DHT22;5008;50.656;7.188;2022-11-03T02:49:46;12.40;99.90
9939;DHT22;5008;50.656;7.188;2022-11-03T02:52:35;12.40;99.90
9939;DHT22;5008;50.656;7.188;2022-11-03T02:55:09;12.50;99.90
9939;DHT22;5008;50.656;7.188;2022-11-03T02:57:42;12.40;99.90
9939;DHT22;5008;50.656;7.188;2022-11-03T03:00:11;12.50;99.90
9939;DHT22;5008;50.656;7.188;2022-11-03T03:02:42;12.30;99.90
9939;DHT22;5008;50.656;7.188;2022-11-03T03:05:10;12.30;99.90
9939;DHT22;5008;50.656;7.188;2022-11-03T03:07:43;12.40;99.90
9939;DHT22;5008;50.656;7.188;2022-11-03T03:10:14;12.40;99.90
9939;DHT22;5008;50.656;7.188;2022-11-03T03:12:50;12.30;99.90
9939;DHT22;5008;50.656;7.188;2022-11-03T03:15:18;12.20;99.90
9939;DHT22;5008;50.656;7.188;2022-11-03T03:17:50;12.10;99.90
9939;DHT22;5008;50.656;7.188;2022-11-03T03:20:21;12.20;99.90
9939;DHT22;5008;50.656;7.188;2022-11-03T03:22:51;12.30;99.90
9939;DHT22;5008;50.656;7.188;2022-11-03T03:25:24;12.20;99.90
9939;DHT22;5008;50.656;7.188;2022-11-03T03:27:58;12.30;99.90
9939;DHT22;5008;50.656;7.188;2022-11-03T03:30:26;12.30;99.90
9939;DHT22;5008;50.656;7.188;2022-11-03T03:32:56;12.40;99.90
9939;DHT22;5008;50.656;7.188;2022-11-03T03:35:25;12.50;99.90
9939;DHT22;5008;50.656;7.188;2022-11-03T03:37:59;12.60;99.90
9939;DHT22;5008;50.656;7.188;2022-11-03T03:40:30;12.60;99.90
9939;DHT22;5008;50.656;7.188;2022-11-03T03:43:00;12.70;99.90
9939;DHT22;5008;50.656;7.188;2022-11-03T03:45:29;12.70;99.90
9939;DHT22;5008;50.656;7.188;2022-11-03T03:47:57;12.60;99.90
9939;DHT22;5008;50.656;7.188;2022-11-03T03:50:26;12.40;99.90
9939;DHT22;5008;50.656;7.188;2022-11-03T03:52:56;12.40;99.90
9939;DHT22;5008;50.656;7.188;2022-11-03T03:55:28;12.20;99.90
9939;DHT22;5008;50.656;7.188;2022-11-03T03:58:00;12.20;99.90
9939;DHT22;5008;50.656;7.188;2022-11-03T04:00:27;12.30;99.90
9939;DHT22;5008;50.656;7.188;2022-11-03T04:02:55;12.40;99.90
9939;DHT22;5008;50.656;7.188;2022-11-03T04:05:22;12.50;99.90
9939;DHT22;5008;50.656;7.188;2022-11-03T04:07:49;12.50;99.90
9939;DHT22;5008;50.656;7.188;2022-11-03T04:10:17;12.40;99.90
9939;DHT22;5008;50.656;7.188;2022-11-03T04:12:45;12.30;99.90
9939;DHT22;5008;50.656;7.188;2022-11-03T04:15:31;12.20;99.90
9939;DHT22;5008;50.656;7.188;2022-11-03T04:18:21;12.10;99.90
9939;DHT22;5008;50.656;7.188;2022-11-03T04:21:09;12.10;99.90
9939;DHT22;5008;50.656;7.188;2022-11-03T04:23:54;12.10;99.90
9939;DHT22;5008;50.656;7.188;2022-11-03T04:26:21;12.00;99.90
9939;DHT22;5008;50.656;7.188;2022-11-03T04:28:48;11.80;99.90
9939;DHT22;5008;50.656;7.188;2022-11-03T04:31:17;11.90;99.90
9939;DHT22;5008;50.656;7.188;2022-11-03T04:33:45;12.00;99.90
9939;DHT22;5008;50.656;7.188;2022-11-03T04:36:15;12.10;99.90
9939;DHT22;5008;50.656;7.188;2022-11-03T04:38:43;12.10;99.90
9939;DHT22;5008;50.656;7.188;2022-11-03T04:41:13;12.10;99.90
9939;DHT22;5008;50.656;7.188;2022-11-03T04:43:41;12.20;99.90
9939;DHT22;5008;50.656;7.188;2022-11-03T04:46:10;12.20;99.90
9939;DHT22;5008;50.656;7.188;2022-11-03T04:48:39;12.20;99.90
9939;DHT22;5008;50.656;7.188;2022-11-03T04:51:13;12.20;99.90
9939;DHT22;5008;50.656;7.188;2022-11-03T04:53:45;12.10;99.90
9939;DHT22;5008;50.656;7.188;2022-11-03T04:56:15;12.10;99.90
9939;DHT22;5008;50.656;7.188;2022-11-03T04:58:43;12.10;99.90
9939;DHT22;5008;50.656;7.188;2022-11-03T05:01:12;12.10;99.90
9939;DHT22;5008;50.656;7.188;2022-11-03T05:03:41;12.10;99.90
9939;DHT22;5008;50.656;7.188;2022-11-03T05:06:11;12.00;99.90
9939;DHT22;5008;50.656;7.188;2022-11-03T05:08:39;11.90;99.90
9939;DHT22;5008;50.656;7.188;2022-11-03T05:11:15;12.00;99.90
9939;DHT22;5008;50.656;7.188;2022-11-03T05:13:45;12.10;99.90
9939;DHT22;5008;50.656;7.188;2022-11-03T05:16:11;12.00;99.90
9939;DHT22;5008;50.656;7.188;2022-11-03T05:18:42;11.90;99.90
9939;DHT22;5008;50.656;7.188;2022-11-03T05:21:12;12.00;99.90
9939;DHT22;5008;50.656;7.188;2022-11-03T05:23:44;12.00;99.90
9939;DHT22;5008;50.656;7.188;2022-11-03T05:26:14;12.10;99.90
9939;DHT22;5008;50.656;7.188;2022-11-03T05:28:47;11.90;99.90
9939;DHT22;5008;50.656;7.188;2022-11-03T05:31:21;11.90;99.90
9939;DHT22;5008;50.656;7.188;2022-11-03T05:33:50;11.90;99.90
9939;DHT22;5008;50.656;7.188;2022-11-03T05:36:20;12.00;99.90
9939;DHT22;5008;50.656;7.188;2022-11-03T05:38:48;12.00;99.90
9939;DHT22;5008;50.656;7.188;2022-11-03T05:41:20;12.00;99.90
9939;DHT22;5008;50.656;7.188;2022-11-03T05:43:53;11.90;99.90
9939;DHT22;5008;50.656;7.188;2022-11-03T05:46:20;12.00;99.90
9939;DHT22;5008;50.656;7.188;2022-11-03T05:48:49;12.00;99.90
9939;DHT22;5008;50.656;7.188;2022-11-03T05:51:19;12.00;99.90
9939;DHT22;5008;50.656;7.188;2022-11-03T05:53:49;12.20;99.90
9939;DHT22;5008;50.656;7.188;2022-11-03T05:56:18;12.30;99.90
9939;DHT22;5008;50.656;7.188;2022-11-03T06:01:27;12.40;99.90
9939;DHT22;5008;50.656;7.188;2022-11-03T06:03:59;12.40;99.90
9939;DHT22;5008;50.656;7.188;2022-11-03T06:06:33;12.40;99.90
9939;DHT22;5008;50.656;7.188;2022-11-03T06:09:09;12.20;99.90
9939;DHT22;5008;50.656;7.188;2022-11-03T06:11:48;12.20;99.90
9939;DHT22;5008;50.656;7.188;2022-11-03T06:14:23;12.50;99.90
9939;DHT22;5008;50.656;7.188;2022-11-03T06:17:18;12.70;99.90
9939;DHT22;5008;50.656;7.188;2022-11-03T06:19:53;13.30;99.90
9939;DHT22;5008;50.656;7.188;2022-11-03T06:22:24;13.50;99.90
9939;DHT22;5008;50.656;7.188;2022-11-03T06:24:54;13.30;99.90
9939;DHT22;5008;50.656;7.188;2022-11-03T06:27:23;13.20;99.90
9939;DHT22;5008;50.656;7.188;2022-11-03T06:29:55;13.00;99.90
9939;DHT22;5008;50.656;7.188;2022-11-03T06:32:23;13.50;99.90
9939;DHT22;5008;50.656;7.188;2022-11-03T06:34:55;13.70;99.90
9939;DHT22;5008;50.656;7.188;2022-11-03T06:37:31;13.90;99.90
9939;DHT22;5008;50.656;7.188;2022-11-03T06:40:00;14.00;99.90
9939;DHT22;5008;50.656;7.188;2022-11-03T06:42:34;13.70;99.90
9939;DHT22;5008;50.656;7.188;2022-11-03T06:45:26;13.40;99.90
9939;DHT22;5008;50.656;7.188;2022-11-03T06:47:55;13.50;99.90
9939;DHT22;5008;50.656;7.188;2022-11-03T06:53:39;13.20;99.90
9939;DHT22;5008;50.656;7.188;2022-11-03T06:56:17;13.00;99.90
9939;DHT22;5008;50.656;7.188;2022-11-03T06:58:46;13.00;99.90
9939;DHT22;5008;50.656;7.188;2022-11-03T07:01:15;13.60;99.90
9939;DHT22;5008;50.656;7.188;2022-11-03T07:03:48;13.20;99.90
9939;DHT22;5008;50.656;7.188;2022-11-03T07:06:20;13.40;99.90
9939;DHT22;5008;50.656;7.188;2022-11-03T07:08:52;13.10;99.90
9939;DHT22;5008;50.656;7.188;2022-11-03T07:11:23;12.90;99.90
9939;DHT22;5008;50.656;7.188;2022-11-03T07:13:52;13.10;99.90
9939;DHT22;5008;50.656;7.188;2022-11-03T07:16:31;13.40;99.90
9939;DHT22;5008;50.656;7.188;2022-11-03T07:25:21;12.50;99.90
9939;DHT22;5008;50.656;7.188;2022-11-03T07:27:58;12.50;99.90
9939;DHT22;5008;50.656;7.188;2022-11-03T07:30:34;12.80;99.90
9939;DHT22;5008;50.656;7.188;2022-11-03T07:33:11;12.80;99.90
9939;DHT22;5008;50.656;7.188;2022-11-03T07:35:47;13.00;99.90
9939;DHT22;5008;50.656;7.188;2022-11-03T07:38:30;12.90;99.90
9939;DHT22;5008;50.656;7.188;2022-11-03T07:41:01;12.90;99.90
9939;DHT22;5008;50.656;7.188;2022-11-03T07:43:35;13.10;99.90
9939;DHT22;5008;50.656;7.188;2022-11-03T07:46:05;13.40;99.90
9939;DHT22;5008;50.656;7.188;2022-11-03T07:48:48;13.10;99.90
9939;DHT22;5008;50.656;7.188;2022-11-03T07:51:19;13.20;99.90
9939;DHT22;5008;50.656;7.188;2022-11-03T07:53:49;13.30;99.90
9939;DHT22;5008;50.656;7.188;2022-11-03T07:56:20;13.80;99.90
9939;DHT22;5008;50.656;7.188;2022-11-03T07:58:50;14.00;99.90
9939;DHT22;5008;50.656;7.188;2022-11-03T08:01:22;13.80;99.90
9939;DHT22;5008;50.656;7.188;2022-11-03T08:03:51;13.80;99.90
9939;DHT22;5008;50.656;7.188;2022-11-03T08:06:37;14.00;99.90
9939;DHT22;5008;50.656;7.188;2022-11-03T08:09:04;14.00;99.90
9939;DHT22;5008;50.656;7.188;2022-11-03T08:11:50;13.90;99.90
9939;DHT22;5008;50.656;7.188;2022-11-03T08:14:26;13.80;99.90
9939;DHT22;5008;50.656;7.188;2022-11-03T08:16:53;13.80;99.90
9939;DHT22;5008;50.656;7.188;2022-11-03T08:19:20;13.90;99.90
9939;DHT22;5008;50.656;7.188;2022-11-03T08:21:46;13.80;99.90
9939;DHT22;5008;50.656;7.188;2022-11-03T08:24:13;13.80;99.90
9939;DHT22;5008;50.656;7.188;2022-11-03T08:26:40;13.90;99.90
9939;DHT22;5008;50.656;7.188;2022-11-03T08:29:08;13.70;99.90
9939;DHT22;5008;50.656;7.188;2022-11-03T08:31:35;13.70;99.90
9939;DHT22;5008;50.656;7.188;2022-11-03T08:34:02;14.10;99.90
9939;DHT22;5008;50.656;7.188;2022-11-03T08:36:29;14.20;99.90
9939;DHT22;5008;50.656;7.188;2022-11-03T08:38:56;14.20;99.90
9939;DHT22;5008;50.656;7.188;2022-11-03T08:41:22;14.00;99.90
9939;DHT22;5008;50.656;7.188;2022-11-03T08:44:09;14.10;99.90
9939;DHT22;5008;50.656;7.188;2022-11-03T08:46:36;14.00;99.90
9939;DHT22;5008;50.656;7.188;2022-11-03T08:49:02;14.00;99.90
9939;DHT22;5008;50.656;7.188;2022-11-03T08:51:29;14.00;99.90
9939;DHT22;5008;50.656;7.188;2022-11-03T08:53:56;13.80;99.90
9939;DHT22;5008;50.656;7.188;2022-11-03T08:56:23;13.90;99.90
9939;DHT22;5008;50.656;7.188;2022-11-03T08:58:50;13.90;99.90
9939;DHT22;5008;50.656;7.188;2022-11-03T09:01:22;13.90;99.90
9939;DHT22;5008;50.656;7.188;2022-11-03T09:03:49;13.80;99.90
9939;DHT22;5008;50.656;7.188;2022-11-03T09:06:17;13.80;99.90
9939;DHT22;5008;50.656;7.188;2022-11-03T09:08:44;13.60;99.90
9939;DHT22;5008;50.656;7.188;2022-11-03T09:11:38;13.50;99.90
9939;DHT22;5008;50.656;7.188;2022-11-03T09:14:25;13.60;99.90
9939;DHT22;5008;50.656;7.188;2022-11-03T09:16:58;13.60;99.90
9939;DHT22;5008;50.656;7.188;2022-11-03T09:19:27;13.60;99.90
9939;DHT22;5008;50.656;7.188;2022-11-03T09:22:00;13.70;99.90
9939;DHT22;5008;50.656;7.188;2022-11-03T09:24:32;13.60;99.90
9939;DHT22;5008;50.656;7.188;2022-11-03T09:26:59;13.80;99.90
9939;DHT22;5008;50.656;7.188;2022-11-03T09:29:36;13.80;99.90
9939;DHT22;5008;50.656;7.188;2022-11-03T09:32:07;13.70;99.90
9939;DHT22;5008;50.656;7.188;2022-11-03T09:34:35;13.70;99.90
9939;DHT22;5008;50.656;7.188;2022-11-03T09:37:02;13.70;99.90
9939;DHT22;5008;50.656;7.188;2022-11-03T09:39:29;13.70;99.90
9939;DHT22;5008;50.656;7.188;2022-11-03T09:41:57;13.70;99.90
9939;DHT22;5008;50.656;7.188;2022-11-03T09:44:25;13.80;99.90
9939;DHT22;5008;50.656;7.188;2022-11-03T09:46:52;13.80;99.90
9939;DHT22;5008;50.656;7.188;2022-11-03T09:49:20;13.90;99.90
9939;DHT22;5008;50.656;7.188;2022-11-03T09:51:47;13.80;99.90
9939;DHT22;5008;50.656;7.188;2022-11-03T09:54:16;13.90;99.90
9939;DHT22;5008;50.656;7.188;2022-11-03T09:56:43;14.00;99.90
9939;DHT22;5008;50.656;7.188;2022-11-03T09:59:16;13.90;99.90
9939;DHT22;5008;50.656;7.188;2022-11-03T10:01:45;13.90;99.90
9939;DHT22;5008;50.656;7.188;2022-11-03T10:04:28;14.00;99.90
9939;DHT22;5008;50.656;7.188;2022-11-03T10:06:57;14.10;99.90
9939;DHT22;5008;50.656;7.188;2022-11-03T10:09:24;14.00;99.90
9939;DHT22;5008;50.656;7.188;2022-11-03T10:11:53;14.10;99.90
9939;DHT22;5008;50.656;7.188;2022-11-03T10:14:22;14.20;99.90
9939;DHT22;5008;50.656;7.188;2022-11-03T10:16:51;14.30;99.90
9939;DHT22;5008;50.656;7.188;2022-11-03T10:19:18;14.20;99.90
9939;DHT22;5008;50.656;7.188;2022-11-03T10:21:47;14.20;99.90
9939;DHT22;5008;50.656;7.188;2022-11-03T10:24:14;14.20;99.90
9939;DHT22;5008;50.656;7.188;2022-11-03T10:26:43;14.10;99.90
9939;DHT22;5008;50.656;7.188;2022-11-03T10:29:16;14.00;99.90
9939;DHT22;5008;50.656;7.188;2022-11-03T10:31:46;15.60;99.90
9939;DHT22;5008;50.656;7.188;2022-11-03T10:34:39;15.90;99.90
9939;DHT22;5008;50.656;7.188;2022-11-03T10:37:16;15.80;99.90
9939;DHT22;5008;50.656;7.188;2022-11-03T10:39:46;15.40;99.90
9939;DHT22;5008;50.656;7.188;2022-11-03T10:42:17;15.10;99.90
9939;DHT22;5008;50.656;7.188;2022-11-03T10:44:45;14.80;99.90
9939;DHT22;5008;50.656;7.188;2022-11-03T10:47:22;14.70;99.90
9939;DHT22;5008;50.656;7.188;2022-11-03T10:49:49;14.60;99.90
9939;DHT22;5008;50.656;7.188;2022-11-03T10:52:20;14.60;99.90
9939;DHT22;5008;50.656;7.188;2022-11-03T10:54:49;14.50;99.90
9939;DHT22;5008;50.656;7.188;2022-11-03T10:57:25;14.30;99.90
9939;DHT22;5008;50.656;7.188;2022-11-03T10:59:53;14.10;99.90
9939;DHT22;5008;50.656;7.188;2022-11-03T11:02:21;14.10;99.90
9939;DHT22;5008;50.656;7.188;2022-11-03T11:04:55;13.90;99.90
9939;DHT22;5008;50.656;7.188;2022-11-03T11:07:31;13.90;99.90
9939;DHT22;5008;50.656;7.188;2022-11-03T11:10:05;13.90;99.90
9939;DHT22;5008;50.656;7.188;2022-11-03T11:12:33;13.80;99.90
9939;DHT22;5008;50.656;7.188;2022-11-03T11:15:01;13.80;99.90
9939;DHT22;5008;50.656;7.188;2022-11-03T11:17:44;13.80;99.90
9939;DHT22;5008;50.656;7.188;2022-11-03T11:20:32;13.80;99.90
9939;DHT22;5008;50.656;7.188;2022-11-03T11:39:00;13.80;99.90
9939;DHT22;5008;50.656;7.188;2022-11-03T11:44:54;13.80;99.90
9939;DHT22;5008;50.656;7.188;2022-11-03T11:47:27;13.70;99.90
9939;DHT22;5008;50.656;7.188;2022-11-03T11:53:11;13.70;99.90
9939;DHT22;5008;50.656;7.188;2022-11-03T11:55:48;13.70;99.90
9939;DHT22;5008;50.656;7.188;2022-11-03T11:58:20;13.70;99.90
9939;DHT22;5008;50.656;7.188;2022-11-03T12:00:58;13.60;99.90
9939;DHT22;5008;50.656;7.188;2022-11-03T12:03:33;13.60;99.90
9939;DHT22;5008;50.656;7.188;2022-11-03T12:06:00;13.60;99.90
9939;DHT22;5008;50.656;7.188;2022-11-03T12:08:29;13.60;99.90
9939;DHT22;5008;50.656;7.188;2022-11-03T12:10:58;13.60;99.90
9939;DHT22;5008;50.656;7.188;2022-11-03T12:13:41;13.50;99.90
9939;DHT22;5008;50.656;7.188;2022-11-03T12:16:25;13.50;99.90
9939;DHT22;5008;50.656;7.188;2022-11-03T12:18:53;13.50;99.90
9939;DHT22;5008;50.656;7.188;2022-11-03T12:21:44;13.40;99.90
9939;DHT22;5008;50.656;7.188;2022-11-03T12:24:35;13.50;99.90
9939;DHT22;5008;50.656;7.188;2022-11-03T12:27:40;13.50;99.90
9939;DHT22;5008;50.656;7.188;2022-11-03T12:30:16;13.60;99.90
9939;DHT22;5008;50.656;7.188;2022-11-03T12:32:45;13.50;99.90
9939;DHT22;5008;50.656;7.188;2022-11-03T12:35:16;13.50;99.90
9939;DHT22;5008;50.656;7.188;2022-11-03T12:37:43;13.50;99.90
9939;DHT22;5008;50.656;7.188;2022-11-03T12:40:11;13.50;99.90
9939;DHT22;5008;50.656;7.188;2022-11-03T12:42:38;13.60;99.90
9939;DHT22;5008;50.656;7.188;2022-11-03T12:45:07;13.60;99.90
9939;DHT22;5008;50.656;7.188;2022-11-03T12:47:34;13.60;99.90
9939;DHT22;5008;50.656;7.188;2022-11-03T12:50:03;13.60;99.90
9939;DHT22;5008;50.656;7.188;2022-11-03T12:52:30;13.70;99.90
9939;DHT22;5008;50.656;7.188;2022-11-03T12:54:56;13.70;99.90
9939;DHT22;5008;50.656;7.188;2022-11-03T12:57:24;13.60;99.90
9939;DHT22;5008;50.656;7.188;2022-11-03T12:59:50;13.70;99.90
9939;DHT22;5008;50.656;7.188;2022-11-03T13:02:17;13.80;99.90
9939;DHT22;5008;50.656;7.188;2022-11-03T13:04:44;13.90;99.90
9939;DHT22;5008;50.656;7.188;2022-11-03T13:07:12;13.80;99.90
9939;DHT22;5008;50.656;7.188;2022-11-03T13:09:39;13.80;99.90
9939;DHT22;5008;50.656;7.188;2022-11-03T13:12:10;13.80;99.90
9939;DHT22;5008;50.656;7.188;2022-11-03T13:14:55;13.70;99.90
9939;DHT22;5008;50.656;7.188;2022-11-03T13:17:33;13.70;99.90
9939;DHT22;5008;50.656;7.188;2022-11-03T13:20:00;13.60;99.90
9939;DHT22;5008;50.656;7.188;2022-11-03T13:22:59;13.70;99.90
9939;DHT22;5008;50.656;7.188;2022-11-03T13:25:51;13.70;99.90
9939;DHT22;5008;50.656;7.188;2022-11-03T13:28:18;13.90;99.90
9939;DHT22;5008;50.656;7.188;2022-11-03T13:30:53;13.90;99.90
9939;DHT22;5008;50.656;7.188;2022-11-03T13:33:25;14.10;99.90
9939;DHT22;5008;50.656;7.188;2022-11-03T13:36:16;14.20;99.90
9939;DHT22;5008;50.656;7.188;2022-11-03T13:41:36;14.10;99.90
9939;DHT22;5008;50.656;7.188;2022-11-03T13:47:08;14.10;99.90
9939;DHT22;5008;50.656;7.188;2022-11-03T13:49:49;14.10;99.90
9939;DHT22;5008;50.656;7.188;2022-11-03T13:52:30;14.00;99.90
9939;DHT22;5008;50.656;7.188;2022-11-03T13:55:00;14.00;99.90
9939;DHT22;5008;50.656;7.188;2022-11-03T13:57:28;14.00;99.90
9939;DHT22;5008;50.656;7.188;2022-11-03T14:00:06;14.00;99.90
9939;DHT22;5008;50.656;7.188;2022-11-03T14:02:45;13.90;99.90
9939;DHT22;5008;50.656;7.188;2022-11-03T14:05:36;13.90;99.90
9939;DHT22;5008;50.656;7.188;2022-11-03T14:08:27;13.90;99.90
9939;DHT22;5008;50.656;7.188;2022-11-03T14:11:07;13.80;99.90
9939;DHT22;5008;50.656;7.188;2022-11-03T14:16:39;13.90;99.90
9939;DHT22;5008;50.656;7.188;2022-11-03T14:19:13;13.90;99.90
9939;DHT22;5008;50.656;7.188;2022-11-03T14:21:40;14.20;99.90
9939;DHT22;5008;50.656;7.188;2022-11-03T14:24:08;14.20;99.90
9939;DHT22;5008;50.656;7.188;2022-11-03T14:26:37;14.10;99.90
9939;DHT22;5008;50.656;7.188;2022-11-03T14:32:39;14.00;99.90
9939;DHT22;5008;50.656;7.188;2022-11-03T14:35:17;13.90;99.90
9939;DHT22;5008;50.656;7.188;2022-11-03T14:37:58;14.00;99.90
9939;DHT22;5008;50.656;7.188;2022-11-03T14:40:51;14.00;99.90
9939;DHT22;5008;50.656;7.188;2022-11-03T14:43:40;13.90;99.90
9939;DHT22;5008;50.656;7.188;2022-11-03T14:46:06;14.20;99.90
9939;DHT22;5008;50.656;7.188;2022-11-03T14:48:43;14.20;99.90
9939;DHT22;5008;50.656;7.188;2022-11-03T14:54:00;14.20;99.90
9939;DHT22;5008;50.656;7.188;2022-11-03T14:56:41;14.20;99.90
9939;DHT22;5008;50.656;7.188;2022-11-03T14:59:22;14.30;99.90
9939;DHT22;5008;50.656;7.188;2022-11-03T15:02:25;14.30;99.90
9939;DHT22;5008;50.656;7.188;2022-11-03T15:04:54;14.10;99.90
9939;DHT22;5008;50.656;7.188;2022-11-03T15:07:21;13.90;99.90
9939;DHT22;5008;50.656;7.188;2022-11-03T15:10:07;13.70;99.90
9939;DHT22;5008;50.656;7.188;2022-11-03T15:12:59;13.60;99.90
9939;DHT22;5008;50.656;7.188;2022-11-03T15:15:59;13.40;99.90
9939;DHT22;5008;50.656;7.188;2022-11-03T15:18:41;13.40;99.90
9939;DHT22;5008;50.656;7.188;2022-11-03T15:21:18;13.30;99.90
9939;DHT22;5008;50.656;7.188;2022-11-03T15:23:55;13.20;99.90
9939;DHT22;5008;50.656;7.188;2022-11-03T15:26:40;13.10;99.90
9939;DHT22;5008;50.656;7.188;2022-11-03T15:29:14;13.00;99.90
9939;DHT22;5008;50.656;7.188;2022-11-03T15:31:54;12.90;99.90
9939;DHT22;5008;50.656;7.188;2022-11-03T15:34:38;12.90;99.90
9939;DHT22;5008;50.656;7.188;2022-11-03T15:37:17;12.90;99.90
9939;DHT22;5008;50.656;7.188;2022-11-03T15:39:45;12.90;99.90
9939;DHT22;5008;50.656;7.188;2022-11-03T15:42:14;12.90;99.90
9939;DHT22;5008;50.656;7.188;2022-11-03T15:44:47;12.90;99.90
9939;DHT22;5008;50.656;7.188;2022-11-03T15:47:18;13.00;99.90
9939;DHT22;5008;50.656;7.188;2022-11-03T15:50:46;13.00;99.90
9939;DHT22;5008;50.656;7.188;2022-11-03T15:53:16;12.90;99.90
9939;DHT22;5008;50.656;7.188;2022-11-03T15:55:43;12.90;99.90
9939;DHT22;5008;50.656;7.188;2022-11-03T15:58:13;12.90;99.90
9939;DHT22;5008;50.656;7.188;2022-11-03T16:00:41;12.90;99.90
9939;DHT22;5008;50.656;7.188;2022-11-03T16:03:09;13.00;99.90
9939;DHT22;5008;50.656;7.188;2022-11-03T16:05:41;13.00;99.90
9939;DHT22;5008;50.656;7.188;2022-11-03T16:08:24;13.00;99.90
9939;DHT22;5008;50.656;7.188;2022-11-03T16:10:54;13.00;99.90
9939;DHT22;5008;50.656;7.188;2022-11-03T16:13:35;13.00;99.90
9939;DHT22;5008;50.656;7.188;2022-11-03T16:16:02;13.00;99.90
9939;DHT22;5008;50.656;7.188;2022-11-03T16:24:37;13.00;99.90
9939;DHT22;5008;50.656;7.188;2022-11-03T16:27:13;13.00;99.90
9939;DHT22;5008;50.656;7.188;2022-11-03T16:29:43;13.00;99.90
9939;DHT22;5008;50.656;7.188;2022-11-03T16:32:24;13.00;99.90
9939;DHT22;5008;50.656;7.188;2022-11-03T16:34:57;13.00;99.90
9939;DHT22;5008;50.656;7.188;2022-11-03T16:37:25;12.90;99.90
9939;DHT22;5008;50.656;7.188;2022-11-03T16:40:00;12.90;99.90
9939;DHT22;5008;50.656;7.188;2022-11-03T16:42:41;12.90;99.90
9939;DHT22;5008;50.656;7.188;2022-11-03T16:45:19;13.00;99.90
9939;DHT22;5008;50.656;7.188;2022-11-03T16:47:47;12.90;99.90
9939;DHT22;5008;50.656;7.188;2022-11-03T16:50:17;12.90;99.90
9939;DHT22;5008;50.656;7.188;2022-11-03T16:52:50;12.90;99.90
9939;DHT22;5008;50.656;7.188;2022-11-03T16:55:28;13.10;99.90
9939;DHT22;5008;50.656;7.188;2022-11-03T16:58:15;13.00;99.90
9939;DHT22;5008;50.656;7.188;2022-11-03T17:00:46;12.90;99.90
9939;DHT22;5008;50.656;7.188;2022-11-03T17:03:18;13.00;99.90
9939;DHT22;5008;50.656;7.188;2022-11-03T17:05:58;13.00;99.90
9939;DHT22;5008;50.656;7.188;2022-11-03T17:08:42;12.90;99.90
9939;DHT22;5008;50.656;7.188;2022-11-03T17:11:12;12.90;99.90
9939;DHT22;5008;50.656;7.188;2022-11-03T17:13:51;13.00;99.90
9939;DHT22;5008;50.656;7.188;2022-11-03T17:16:19;12.90;99.90
9939;DHT22;5008;50.656;7.188;2022-11-03T17:18:46;13.00;99.90
9939;DHT22;5008;50.656;7.188;2022-11-03T17:21:26;12.90;99.90
9939;DHT22;5008;50.656;7.188;2022-11-03T17:23:56;13.00;99.90
9939;DHT22;5008;50.656;7.188;2022-11-03T17:26:37;13.00;99.90
9939;DHT22;5008;50.656;7.188;2022-11-03T17:32:24;13.00;99.90
9939;DHT22;5008;50.656;7.188;2022-11-03T17:35:07;13.00;99.90